Time;durP1;ratioP1;P1;durP2;ratioP2;P2;SDS_P1;SDS_P2;PMS_P1;PMS_P2;Temp;Humidity;BMP_temperature;BMP_pressure;BME280_temperature;BME280_humidity;BME280_pressure;Samples;Min_cycle;Max_cycle;Signal;HPM_P1;HPM_P2
2023/09/29 00:01:38;;;;;;;24.13;4.90;;;;;;;16.84;56.85;95570.31;4997835;28;20031;-88
2023/09/29 00:04:05;;;;;;;13.07;4.53;;;;;;;17.68;56.00;95693.78;4980568;28;20031;-88
2023/09/29 00:06:34;;;;;;;26.05;5.07;;;;;;;17.94;55.31;95719.97;4979338;28;20145;-88
2023/09/29 00:09:00;;;;;;;14.65;4.88;;;;;;;17.73;55.99;95692.84;4980129;28;20096;-88
2023/09/29 00:11:27;;;;;;;17.48;5.43;;;;;;;17.86;56.09;95704.59;4980529;28;20494;-88
2023/09/29 00:13:52;;;;;;;12.93;4.60;;;;;;;17.29;56.25;95645.38;4980179;28;20042;-88
2023/09/29 00:16:18;;;;;;;16.65;5.28;;;;;;;17.67;55.70;95684.16;4997231;28;20078;-86
2023/09/29 00:18:43;;;;;;;23.20;5.80;;;;;;;17.86;55.59;95720.72;4995666;28;20520;-87
2023/09/29 00:21:09;;;;;;;15.05;5.30;;;;;;;17.76;56.18;95703.00;4978296;28;20037;-86
2023/09/29 00:23:35;;;;;;;14.80;5.07;;;;;;;17.79;56.14;95704.25;4978358;28;20125;-86
2023/09/29 00:26:01;;;;;;;25.63;4.75;;;;;;;17.88;55.93;95719.31;4994725;28;20031;-88
2023/09/29 00:28:27;;;;;;;16.25;4.93;;;;;;;17.45;56.60;95672.59;4977553;28;20390;-87
2023/09/29 00:30:53;;;;;;;18.77;5.38;;;;;;;17.01;56.86;95612.53;4969214;28;20501;-87
2023/09/29 00:33:18;;;;;;;15.82;4.63;;;;;;;17.55;57.59;95729.44;4976595;28;20035;-87
2023/09/29 00:35:44;;;;;;;14.05;5.00;;;;;;;17.31;57.99;95700.25;4960934;28;20089;-89
2023/09/29 00:38:09;;;;;;;19.10;4.90;;;;;;;16.39;58.13;95557.91;4978321;28;20050;-88
2023/09/29 00:40:35;;;;;;;11.77;4.78;;;;;;;17.49;57.91;95711.09;4996016;28;20081;-89
2023/09/29 00:43:03;;;;;;;12.73;4.28;;;;;;;17.39;58.15;95716.72;4979215;28;20551;-88
2023/09/29 00:45:29;;;;;;;9.40;5.03;;;;;;;16.88;57.81;95634.78;4979399;28;20034;-88
2023/09/29 00:47:58;;;;;;;15.00;4.82;;;;;;;16.76;57.19;95635.31;4997303;28;20038;-88
2023/09/29 00:50:28;;;;;;;12.00;4.40;;;;;;;15.69;57.24;95464.66;4997857;28;20022;-88
2023/09/29 00:52:59;;;;;;;12.18;4.53;;;;;;;16.54;57.56;95584.34;4998373;28;20169;-88
2023/09/29 00:55:29;;;;;;;;;;;;;;;17.35;57.58;95717.31;4980296;28;20112;-88
2023/09/29 00:57:59;;;;;;;14.35;5.13;;;;;;;17.41;57.81;95707.25;4980047;28;19921;-88
2023/09/29 01:02:54;;;;;;;25.42;4.90;;;;;;;17.44;57.45;95708.56;4997952;28;20049;-87
2023/09/29 01:05:20;;;;;;;15.30;4.60;;;;;;;17.42;57.52;95711.53;4997149;28;20023;-87
2023/09/29 01:07:46;;;;;;;11.75;4.82;;;;;;;17.23;57.33;95678.75;4996642;28;20058;-86
2023/09/29 01:10:13;;;;;;;14.50;4.60;;;;;;;17.09;57.44;95661.91;4979297;28;20045;-88
2023/09/29 01:12:39;;;;;;;11.90;4.78;;;;;;;16.85;57.17;95624.66;4979898;28;20062;-88
2023/09/29 01:15:05;;;;;;;17.50;5.65;;;;;;;17.27;57.58;95696.59;4996419;28;20142;-89
2023/09/29 01:17:31;;;;;;;19.35;5.22;;;;;;;16.86;57.34;95623.59;4978979;28;20038;-87
2023/09/29 01:19:56;;;;;;;8.38;4.43;;;;;;;16.18;57.27;95522.72;4978817;28;20070;-87
2023/09/29 01:22:22;;;;;;;16.52;5.50;;;;;;;16.45;57.24;95567.41;4978684;28;20034;-88
2023/09/29 01:24:48;;;;;;;16.65;5.60;;;;;;;17.25;57.84;95700.66;4974439;28;20046;-83
2023/09/29 01:27:13;;;;;;;15.75;5.30;;;;;;;16.74;58.20;95640.16;4983113;28;20038;-84
2023/09/29 01:29:42;;;;;;;15.68;4.85;;;;;;;16.76;58.36;95640.66;4970916;28;20046;-83
2023/09/29 01:32:14;;;;;;;13.20;4.75;;;;;;;16.65;58.13;95603.66;5002444;28;20064;-83
2023/09/29 01:34:40;;;;;;;10.68;5.32;;;;;;;17.12;58.77;95720.25;4979370;28;20034;-84
2023/09/29 01:37:07;;;;;;;23.60;5.60;;;;;;;16.59;58.98;95661.88;4974972;28;20105;-84
2023/09/29 01:39:33;;;;;;;19.33;5.25;;;;;;;16.37;58.77;95603.69;4986914;28;20486;-83
2023/09/29 01:41:59;;;;;;;10.65;4.70;;;;;;;16.68;59.01;95656.66;4985871;28;20045;-82
2023/09/29 01:44:25;;;;;;;16.48;4.43;;;;;;;15.79;59.54;95550.03;4985996;28;20057;-83
2023/09/29 01:46:50;;;;;;;25.88;5.05;;;;;;;16.12;59.44;95588.16;5004515;28;20069;-83
2023/09/29 01:49:16;;;;;;;12.98;4.72;;;;;;;16.62;59.48;95674.72;5004055;28;20034;-83
2023/09/29 01:51:44;;;;;;;14.40;5.38;;;;;;;16.75;59.98;95713.28;4987129;28;20042;-83
2023/09/29 01:54:10;;;;;;;15.02;5.43;;;;;;;16.74;59.87;95695.59;4986400;28;20516;-83
2023/09/29 01:56:36;;;;;;;24.98;6.13;;;;;;;16.68;59.48;95680.75;4986481;28;20027;-83
2023/09/29 01:59:02;;;;;;;22.88;5.65;;;;;;;16.73;59.59;95692.13;5003588;28;20046;-83
2023/09/29 02:01:28;;;;;;;15.27;4.75;;;;;;;16.07;59.91;95601.63;5003943;28;20042;-83
2023/09/29 02:03:54;;;;;;;13.50;4.40;;;;;;;16.09;60.59;95634.25;5004092;28;20042;-83
2023/09/29 02:06:19;;;;;;;21.42;4.90;;;;;;;16.47;60.16;95677.66;4987179;28;20041;-83
2023/09/29 02:08:45;;;;;;;21.48;4.80;;;;;;;16.82;60.16;95719.00;5002949;28;20035;-83
2023/09/29 02:11:12;;;;;;;13.93;4.78;;;;;;;16.63;59.99;95680.84;4985673;28;20085;-83
2023/09/29 02:13:38;;;;;;;17.52;5.15;;;;;;;16.66;60.08;95707.03;4986166;28;20045;-83
2023/09/29 02:16:15;;;;;;;22.23;5.07;;;;;;;16.20;60.22;95632.94;4985736;28;20058;-84
2023/09/29 02:18:41;;;;;;;13.50;4.05;;;;;;;16.83;60.21;95724.09;5004438;28;20038;-84
2023/09/29 02:21:07;;;;;;;19.13;4.57;;;;;;;16.39;60.06;95640.88;4987147;28;20038;-84
2023/09/29 02:23:38;;;;;;;11.63;4.97;;;;;;;16.48;60.00;95647.88;5003841;28;20062;-83
2023/09/29 02:26:04;;;;;;;12.23;4.95;;;;;;;16.10;59.62;95598.34;4986342;28;20191;-83
2023/09/29 02:28:32;;;;;;;20.75;5.05;;;;;;;15.64;60.18;95544.97;4986086;28;20440;-83
2023/09/29 02:30:58;;;;;;;14.57;4.68;;;;;;;16.09;60.71;95618.19;5004049;28;20112;-83
2023/09/29 02:33:26;;;;;;;13.65;5.20;;;;;;;16.47;60.58;95673.09;4985919;28;20038;-83
2023/09/29 02:35:52;;;;;;;14.35;4.53;;;;;;;16.55;60.28;95675.06;4985647;28;20030;-83
2023/09/29 02:38:17;;;;;;;12.05;4.68;;;;;;;16.61;60.56;95691.06;5001602;28;20069;-84
2023/09/29 02:40:43;;;;;;;11.80;5.47;;;;;;;16.82;61.05;95738.56;5002667;28;20120;-83
2023/09/29 02:43:09;;;;;;;9.88;4.70;;;;;;;16.40;60.96;95671.91;5003391;28;20037;-83
2023/09/29 02:45:39;;;;;;;24.50;4.70;;;;;;;16.36;61.48;95681.63;5006117;28;20058;-83
2023/09/29 02:48:05;;;;;;;13.13;4.65;;;;;;;16.71;61.02;95737.16;4989944;28;20480;-83
2023/09/29 02:50:34;;;;;;;18.55;5.32;;;;;;;16.85;60.61;95729.16;4988743;28;20048;-84
2023/09/29 02:53:03;;;;;;;15.00;5.07;;;;;;;16.18;61.17;95640.47;4989899;28;20154;-83
2023/09/29 02:55:28;;;;;;;13.73;5.03;;;;;;;16.69;61.11;95725.97;4990640;28;20051;-85
2023/09/29 02:57:54;;;;;;;12.32;5.00;;;;;;;16.39;61.18;95675.69;4991820;28;20033;-86
2023/09/29 03:00:22;;;;;;;13.32;4.80;;;;;;;16.61;61.27;95707.94;4991771;28;20031;-85
2023/09/29 03:02:48;;;;;;;9.75;5.13;;;;;;;16.32;61.33;95689.47;4991598;28;20065;-86
2023/09/29 03:05:15;;;;;;;11.80;5.55;;;;;;;15.92;61.01;95608.06;4996249;28;20031;-85
2023/09/29 03:07:41;;;;;;;17.38;5.30;;;;;;;16.12;60.76;95633.63;4993999;28;20023;-86
2023/09/29 03:10:08;;;;;;;18.10;6.57;;;;;;;16.35;60.56;95675.47;4991938;28;20034;-86
2023/09/29 03:12:36;;;;;;;12.80;4.60;;;;;;;16.65;60.69;95716.94;4991552;28;20069;-86
2023/09/29 03:15:01;;;;;;;14.68;5.10;;;;;;;16.36;61.21;95692.31;5008866;28;20061;-85
2023/09/29 03:17:30;;;;;;;18.25;6.05;;;;;;;16.11;61.02;95643.53;4991142;28;20118;-86
2023/09/29 03:19:55;;;;;;;14.75;5.20;;;;;;;16.25;60.91;95656.16;4979148;28;20030;-85
2023/09/29 03:22:21;;;;;;;24.45;5.03;;;;;;;16.13;60.68;95635.22;5008591;28;20129;-85
2023/09/29 03:24:46;;;;;;;19.98;5.45;;;;;;;16.50;60.91;95693.91;4991149;28;20037;-86
2023/09/29 03:27:12;;;;;;;16.70;5.20;;;;;;;16.54;60.75;95694.91;5007052;28;20042;-85
2023/09/29 03:29:37;;;;;;;17.00;4.82;;;;;;;16.07;60.58;95637.22;4971327;28;20042;-85
2023/09/29 03:32:03;;;;;;;20.90;4.97;;;;;;;16.36;60.26;95661.00;4992602;28;20113;-85
2023/09/29 03:34:28;;;;;;;17.55;5.40;;;;;;;16.89;60.18;95741.63;4990789;28;20034;-85
2023/09/29 03:36:54;;;;;;;19.05;4.90;;;;;;;16.91;59.92;95744.81;4990250;28;20030;-86
2023/09/29 03:39:20;;;;;;;13.60;4.55;;;;;;;16.10;59.79;95612.53;5008725;28;20074;-86
2023/09/29 03:41:45;;;;;;;17.02;4.97;;;;;;;16.79;59.76;95716.91;5007519;28;20057;-86
2023/09/29 03:44:12;;;;;;;19.88;5.75;;;;;;;16.07;59.25;95596.28;5007321;28;20054;-86
2023/09/29 03:46:38;;;;;;;16.77;5.00;;;;;;;16.28;59.45;95672.41;5000149;28;20099;-88
2023/09/29 03:49:04;;;;;;;13.55;5.07;;;;;;;16.28;59.21;95648.31;4980932;28;20123;-88
2023/09/29 03:51:30;;;;;;;23.63;5.80;;;;;;;16.39;59.19;95651.59;4981136;28;20070;-88
2023/09/29 03:53:56;;;;;;;11.70;5.55;;;;;;;16.47;59.55;95672.31;4980787;28;20034;-88
2023/09/29 03:56:25;;;;;;;16.08;6.43;;;;;;;16.15;60.10;95655.25;4980406;28;20084;-88
2023/09/29 03:58:55;;;;;;;16.88;5.70;;;;;;;16.77;60.49;95740.56;4981215;28;20417;-88
2023/09/29 04:01:21;;;;;;;27.23;6.68;;;;;;;16.64;60.17;95712.66;4982262;28;20034;-88
2023/09/29 04:03:46;;;;;;;22.75;5.55;;;;;;;16.83;60.29;95737.47;4999707;28;20030;-88
2023/09/29 04:06:12;;;;;;;22.15;5.40;;;;;;;15.80;60.55;95581.00;4981726;28;20034;-89
2023/09/29 04:08:38;;;;;;;15.85;6.40;;;;;;;16.14;60.91;95644.84;4998221;28;20037;-88
2023/09/29 04:11:04;;;;;;;20.42;5.72;;;;;;;16.72;60.76;95727.25;4975915;28;20035;-88
2023/09/29 04:13:30;;;;;;;23.95;5.65;;;;;;;16.84;60.62;95733.72;4978667;28;20054;-87
2023/09/29 04:15:58;;;;;;;17.42;6.28;;;;;;;16.87;60.41;95734.97;4975784;28;20150;-87
2023/09/29 04:18:24;;;;;;;21.55;6.40;;;;;;;16.75;60.48;95721.31;4960280;28;20062;-86
2023/09/29 04:20:49;;;;;;;19.60;5.78;;;;;;;16.64;59.73;95712.66;4984175;28;20429;-87
2023/09/29 04:23:15;;;;;;;29.35;6.10;;;;;;;16.16;60.43;95629.28;4974904;28;20042;-87
2023/09/29 04:25:41;;;;;;;28.00;7.40;;;;;;;16.54;60.51;95686.09;4955764;28;20045;-85
2023/09/29 04:28:06;;;;;;;22.75;6.82;;;;;;;15.82;60.57;95582.31;4950445;28;20022;-85
2023/09/29 04:30:32;;;;;;;23.67;5.97;;;;;;;16.78;60.61;95758.22;4959447;23;20050;-81
2023/09/29 04:32:57;;;;;;;33.75;8.77;;;;;;;16.81;59.73;95747.69;4928460;28;20042;-82
2023/09/29 04:35:23;;;;;;;22.33;7.47;;;;;;;16.45;59.01;95680.63;4929708;28;20046;-81
2023/09/29 04:37:51;;;;;;;25.67;6.57;;;;;;;16.55;58.28;95701.81;4941605;28;20038;-82
2023/09/29 04:40:17;;;;;;;23.45;7.03;;;;;;;16.94;57.92;95754.13;4926028;28;20045;-80
2023/09/29 04:42:42;;;;;;;21.75;7.07;;;;;;;16.97;57.76;95748.16;4945672;28;21207;-82
2023/09/29 04:45:14;;;;;;;16.80;6.32;;;;;;;16.75;58.36;95753.44;4942115;28;20034;-82
2023/09/29 04:47:40;;;;;;;20.95;6.10;;;;;;;16.67;58.30;95757.63;4955539;28;20398;-82
2023/09/29 04:50:07;;;;;;;24.92;6.18;;;;;;;16.63;58.06;95739.78;4935623;28;20042;-82
2023/09/29 04:52:33;;;;;;;13.73;5.53;;;;;;;16.46;57.46;95725.06;4935045;28;20869;-81
2023/09/29 04:54:58;;;;;;;26.08;6.30;;;;;;;16.67;56.57;95756.81;4952567;28;20038;-80
2023/09/29 04:57:24;;;;;;;18.17;5.43;;;;;;;16.71;55.99;95763.94;4947007;28;20048;-80
2023/09/29 04:59:50;;;;;;;25.05;5.32;;;;;;;16.63;55.76;95748.56;4945871;28;20588;-81
2023/09/29 05:02:15;;;;;;;18.55;5.38;;;;;;;16.67;55.73;95779.03;4967314;28;20598;-82
2023/09/29 05:04:41;;;;;;;21.27;5.93;;;;;;;16.59;55.07;95767.09;4976132;28;20038;-82
2023/09/29 05:07:06;;;;;;;27.40;6.80;;;;;;;16.72;55.10;95756.72;4960382;28;20130;-80
2023/09/29 05:09:32;;;;;;;24.95;6.13;;;;;;;16.73;54.56;95769.81;4976377;28;20069;-80
2023/09/29 05:11:57;;;;;;;17.10;5.22;;;;;;;16.28;54.11;95679.63;4964219;28;20049;-82
2023/09/29 05:14:24;;;;;;;20.80;5.65;;;;;;;16.78;54.55;95769.69;4966562;28;20040;-81
2023/09/29 05:16:50;;;;;;;22.33;5.78;;;;;;;16.46;54.49;95724.25;4973195;28;20029;-82
2023/09/29 05:19:16;;;;;;;35.30;5.68;;;;;;;16.67;54.68;95773.69;4973348;28;20049;-82
2023/09/29 05:21:41;;;;;;;28.92;6.32;;;;;;;16.38;54.57;95719.59;4982242;28;20620;-80
2023/09/29 05:24:08;;;;;;;12.18;5.13;;;;;;;16.74;54.61;95779.44;4959153;28;20142;-81
2023/09/29 05:26:33;;;;;;;25.55;5.95;;;;;;;16.68;54.64;95785.97;4975982;28;20425;-81
2023/09/29 05:28:59;;;;;;;26.33;5.75;;;;;;;16.76;54.42;95781.81;4975891;28;20038;-81
2023/09/29 05:31:25;;;;;;;34.20;5.78;;;;;;;16.85;54.19;95774.69;4972127;28;20548;-81
2023/09/29 05:33:53;;;;;;;27.85;7.05;;;;;;;16.65;54.36;95754.44;4982759;28;20037;-81
2023/09/29 05:36:21;;;;;;;22.02;6.00;;;;;;;16.79;54.75;95787.34;4973040;28;20059;-82
2023/09/29 05:38:46;;;;;;;21.23;6.18;;;;;;;16.54;54.34;95753.03;4993253;28;20045;-81
2023/09/29 05:41:12;;;;;;;23.92;6.15;;;;;;;16.76;54.22;95771.91;4985772;28;20038;-82
2023/09/29 05:43:37;;;;;;;23.98;6.05;;;;;;;16.92;53.37;95789.25;4977520;28;20042;-81
2023/09/29 05:46:03;;;;;;;22.08;5.45;;;;;;;17.00;53.44;95789.66;4973299;28;20089;-82
2023/09/29 05:48:28;;;;;;;37.63;8.57;;;;;;;16.84;53.46;95773.88;4975375;28;20396;-81
2023/09/29 05:50:54;;;;;;;21.02;8.30;;;;;;;16.51;53.61;95738.34;4974198;28;20574;-82
2023/09/29 05:53:19;;;;;;;20.35;8.30;;;;;;;16.43;53.76;95736.34;4988551;28;20396;-81
2023/09/29 05:55:45;;;;;;;27.02;8.70;;;;;;;16.86;53.75;95793.13;4990823;28;20471;-82
2023/09/29 05:58:11;;;;;;;17.42;7.22;;;;;;;16.75;53.56;95769.50;4971381;28;20175;-82
2023/09/29 06:00:37;;;;;;;22.80;8.30;;;;;;;16.85;53.45;95785.41;4979756;28;20096;-83
2023/09/29 06:03:02;;;;;;;24.48;8.43;;;;;;;16.87;53.77;95783.19;4968801;28;20042;-82
2023/09/29 06:05:28;;;;;;;21.27;7.32;;;;;;;16.95;53.38;95790.53;4982234;28;20117;-82
2023/09/29 06:07:55;;;;;;;22.30;6.38;;;;;;;16.84;53.25;95762.38;4981671;28;20040;-82
2023/09/29 06:10:20;;;;;;;30.52;6.90;;;;;;;16.69;53.91;95784.91;4974076;28;20168;-82
2023/09/29 06:12:46;;;;;;;19.05;5.70;;;;;;;16.90;53.45;95785.28;4984309;28;20085;-84
2023/09/29 06:15:11;;;;;;;18.15;6.22;;;;;;;16.83;53.67;95769.63;4971380;28;20184;-83
2023/09/29 06:17:37;;;;;;;14.70;6.03;;;;;;;16.68;53.58;95745.81;4986809;28;20033;-84
2023/09/29 06:20:04;;;;;;;21.75;6.93;;;;;;;16.76;53.73;95747.00;4974931;28;20999;-84
2023/09/29 06:22:29;;;;;;;38.97;6.68;;;;;;;16.91;53.79;95762.78;4994371;28;20038;-83
2023/09/29 06:24:55;;;;;;;25.00;6.25;;;;;;;16.54;53.63;95691.44;5000500;28;20030;-83
2023/09/29 06:27:20;;;;;;;21.23;6.03;;;;;;;16.84;53.80;95754.34;4982754;28;20546;-83
2023/09/29 06:29:50;;;;;;;20.05;7.20;;;;;;;16.81;54.12;95760.28;5014603;28;20049;-82
2023/09/29 06:32:19;;;;;;;25.50;6.38;;;;;;;16.68;53.59;95724.38;5017873;28;20034;-81
2023/09/29 06:34:45;;;;;;;23.48;6.38;;;;;;;17.22;53.57;95787.06;5009986;28;20030;-80
2023/09/29 06:37:10;;;;;;;28.48;6.50;;;;;;;17.07;53.02;95761.38;5015617;28;20036;-82
2023/09/29 06:39:36;;;;;;;18.92;5.75;;;;;;;17.30;52.88;95776.41;5001795;28;20030;-83
2023/09/29 06:42:03;;;;;;;28.23;6.30;;;;;;;17.16;53.04;95772.97;5000675;28;20045;-82
2023/09/29 06:44:29;;;;;;;38.67;6.95;;;;;;;17.24;52.99;95769.56;4990378;28;20061;-82
2023/09/29 06:46:55;;;;;;;33.60;6.95;;;;;;;17.33;52.80;95775.78;4999526;28;20088;-82
2023/09/29 06:49:20;;;;;;;29.25;7.68;;;;;;;17.44;52.94;95762.97;5009230;28;20045;-81
2023/09/29 06:51:46;;;;;;;22.75;7.18;;;;;;;17.64;52.85;95792.03;4992534;28;20038;-79
2023/09/29 06:54:12;;;;;;;19.02;6.82;;;;;;;17.52;52.69;95778.34;4993084;28;20053;-79
2023/09/29 06:56:37;;;;;;;29.67;6.82;;;;;;;16.97;52.77;95703.41;4984961;28;20052;-78
2023/09/29 06:59:03;;;;;;;32.83;7.20;;;;;;;16.99;52.74;95689.72;4991941;28;20033;-78
2023/09/29 07:01:32;;;;;;;30.65;7.65;;;;;;;17.45;52.95;95780.66;4984993;28;20038;-80
2023/09/29 07:03:58;;;;;;;27.75;6.68;;;;;;;17.69;52.33;95791.16;4996679;28;20494;-78
2023/09/29 07:06:24;;;;;;;31.90;7.75;;;;;;;17.21;52.65;95723.81;5001372;28;20089;-78
2023/09/29 07:08:50;;;;;;;33.50;7.32;;;;;;;17.76;52.62;95785.34;5014705;28;20048;-79
2023/09/29 07:11:16;;;;;;;25.00;7.53;;;;;;;17.80;52.29;95789.00;4993930;28;20037;-79
2023/09/29 07:13:42;;;;;;;16.05;6.75;;;;;;;17.69;52.50;95756.28;4987357;28;20038;-79
2023/09/29 07:16:07;;;;;;;32.20;8.63;;;;;;;17.86;51.84;95779.72;4963637;28;20037;-80
2023/09/29 07:18:33;;;;;;;42.65;8.55;;;;;;;17.99;51.65;95782.38;4967474;28;20045;-80
2023/09/29 07:20:59;;;;;;;25.90;7.35;;;;;;;18.20;51.11;95787.25;4990293;28;20038;-80
2023/09/29 07:23:25;;;;;;;31.00;8.10;;;;;;;17.82;51.38;95719.75;4992909;28;20062;-79
2023/09/29 07:25:55;;;;;;;33.78;9.18;;;;;;;18.28;51.01;95778.44;4991653;28;20040;-80
2023/09/29 07:28:23;;;;;;;27.50;8.25;;;;;;;18.56;50.21;95795.16;4995942;28;20041;-78
2023/09/29 07:30:52;;;;;;;36.30;7.88;;;;;;;18.58;49.82;95783.06;5010988;28;20104;-78
2023/09/29 07:33:18;;;;;;;32.95;7.75;;;;;;;18.42;50.08;95774.56;4991265;28;20034;-79
2023/09/29 07:35:46;;;;;;;37.80;8.70;;;;;;;18.50;49.52;95751.53;4995849;28;20034;-80
2023/09/29 07:38:13;;;;;;;24.75;7.47;;;;;;;18.67;48.73;95767.78;4980695;28;20053;-80
2023/09/29 07:40:38;;;;;;;40.05;7.97;;;;;;;18.80;48.73;95758.81;5005193;28;20176;-79
2023/09/29 07:43:05;;;;;;;24.30;7.85;;;;;;;19.23;48.26;95795.75;4990806;28;20583;-79
2023/09/29 07:45:33;;;;;;;29.27;8.43;;;;;;;19.27;47.38;95794.84;5011008;28;20810;-78
2023/09/29 07:47:59;;;;;;;27.92;7.40;;;;;;;19.20;46.89;95777.59;5013354;28;20052;-81
2023/09/29 07:50:25;;;;;;;24.10;6.88;;;;;;;19.40;46.74;95806.56;4990075;28;20026;-80
2023/09/29 07:52:51;;;;;;;17.95;6.20;;;;;;;19.56;46.33;95802.34;5005493;28;20119;-79
2023/09/29 07:55:16;;;;;;;23.58;7.22;;;;;;;19.68;46.01;95795.56;4988247;28;20078;-80
2023/09/29 07:57:42;;;;;;;22.15;6.75;;;;;;;19.80;45.61;95801.09;4969302;28;20132;-80
2023/09/29 08:00:15;;;;;;;20.00;6.88;;;;;;;19.94;45.38;95802.53;4990094;28;20046;-78
2023/09/29 08:02:43;;;;;;;26.50;6.70;;;;;;;19.87;45.34;95769.91;4978027;28;20076;-79
2023/09/29 08:05:09;;;;;;;23.35;5.60;;;;;;;20.14;44.83;95794.91;4996121;28;20100;-81
2023/09/29 08:07:35;;;;;;;40.40;6.80;;;;;;;20.04;44.48;95767.19;4990701;28;20057;-80
2023/09/29 08:10:01;;;;;;;21.83;5.80;;;;;;;20.18;43.74;95768.91;4993889;28;20052;-79
2023/09/29 08:12:26;;;;;;;19.83;5.70;;;;;;;20.24;43.40;95763.03;4988676;28;20063;-79
2023/09/29 08:14:52;;;;;;;25.30;6.82;;;;;;;20.53;43.60;95794.69;4996873;28;20103;-78
2023/09/29 08:17:20;;;;;;;26.73;7.53;;;;;;;20.71;43.46;95782.75;4988065;28;20034;-82
2023/09/29 08:19:47;;;;;;;24.63;5.85;;;;;;;20.78;43.54;95782.25;4994641;28;20042;-82
2023/09/29 08:22:12;;;;;;;27.45;5.70;;;;;;;20.46;42.88;95727.03;4979558;28;20030;-82
2023/09/29 08:24:39;;;;;;;19.00;5.13;;;;;;;20.97;42.19;95784.56;4982896;28;20086;-82
2023/09/29 08:27:06;;;;;;;22.67;5.90;;;;;;;20.95;40.77;95759.81;4994054;28;20138;-82
2023/09/29 08:29:32;;;;;;;22.20;4.00;;;;;;;21.12;39.56;95768.63;4996689;28;20302;-83
2023/09/29 08:31:59;;;;;;;15.50;4.72;;;;;;;21.07;39.15;95774.16;4971977;28;20320;-81
2023/09/29 08:34:25;;;;;;;24.52;4.00;;;;;;;21.34;38.46;95772.16;4974213;28;20524;-81
2023/09/29 08:36:52;;;;;;;25.65;5.28;;;;;;;21.34;38.35;95769.47;4994244;28;20030;-81
2023/09/29 08:39:17;;;;;;;19.73;4.85;;;;;;;21.30;38.42;95739.63;5013784;28;20037;-81
2023/09/29 08:41:54;;;;;;;21.42;5.15;;;;;;;21.75;37.76;95772.16;5020209;28;20153;-81
2023/09/29 08:44:25;;;;;;;21.77;4.93;;;;;;;21.81;37.25;95764.69;5013139;28;20034;-81
2023/09/29 08:46:53;;;;;;;18.87;5.27;;;;;;;21.67;37.41;95745.25;5014535;28;20096;-80
2023/09/29 08:49:21;;;;;;;14.57;4.57;;;;;;;21.75;36.24;95772.16;5014490;28;20105;-81
2023/09/29 08:51:47;;;;;;;18.95;4.65;;;;;;;21.76;36.89;95741.34;4999775;28;20219;-81
2023/09/29 08:54:17;;;;;;;18.63;4.60;;;;;;;21.81;36.46;95775.47;5001281;28;20041;-81
2023/09/29 08:56:43;;;;;;;12.50;4.30;;;;;;;21.82;36.46;95742.72;4997041;28;20034;-81
2023/09/29 08:59:08;;;;;;;18.92;4.22;;;;;;;21.62;36.11;95721.16;5014257;28;20037;-80
2023/09/29 09:01:34;;;;;;;21.45;4.15;;;;;;;22.10;36.20;95756.50;4998359;28;20036;-81
2023/09/29 09:04:00;;;;;;;14.10;3.47;;;;;;;22.10;35.33;95767.31;5014798;28;20046;-80
2023/09/29 09:06:26;;;;;;;9.18;3.38;;;;;;;21.98;35.72;95748.34;4998135;28;20038;-83
2023/09/29 09:08:54;;;;;;;20.40;4.75;;;;;;;22.16;35.30;95763.25;5014088;28;20088;-79
2023/09/29 09:11:20;;;;;;;10.85;3.10;;;;;;;22.16;34.30;95765.19;4996796;28;20120;-80
2023/09/29 09:13:59;;;;;;;11.10;3.72;;;;;;;22.12;34.35;95756.97;4999951;28;20031;-81
2023/09/29 09:16:36;;;;;;;7.80;3.50;;;;;;;22.10;35.03;95723.28;4993805;28;20038;-80
2023/09/29 09:19:28;;;;;;;8.93;3.72;;;;;;;22.41;34.58;95768.75;5008992;28;20046;-81
2023/09/29 09:21:54;;;;;;;7.32;2.83;;;;;;;22.30;34.82;95744.06;5010673;28;20060;-81
2023/09/29 09:24:23;;;;;;;14.55;3.13;;;;;;;22.58;34.65;95761.22;5003402;28;20062;-80
2023/09/29 09:26:50;;;;;;;9.13;3.08;;;;;;;22.59;33.55;95764.72;5010952;28;20037;-79
2023/09/29 09:29:16;;;;;;;9.00;4.10;;;;;;;22.73;33.14;95767.91;4991179;28;20038;-82
2023/09/29 09:31:47;;;;;;;12.68;3.28;;;;;;;22.79;34.22;95774.69;5002464;28;20279;-82
2023/09/29 09:34:13;;;;;;;17.05;3.50;;;;;;;22.44;34.56;95709.41;4994879;28;20038;-80
2023/09/29 09:36:50;;;;;;;11.75;3.00;;;;;;;22.81;34.02;95744.63;4970779;28;20125;-82
2023/09/29 09:39:16;;;;;;;12.40;3.85;;;;;;;23.02;33.00;95767.72;4955230;28;20185;-83
2023/09/29 09:41:42;;;;;;;9.93;3.70;;;;;;;22.99;33.58;95749.47;4993661;28;20071;-83
2023/09/29 09:44:09;;;;;;;18.25;3.60;;;;;;;23.20;33.35;95768.28;4995202;28;20044;-81
2023/09/29 09:46:39;;;;;;;12.27;3.90;;;;;;;23.03;33.08;95731.44;4990581;28;20065;-83
2023/09/29 09:49:09;;;;;;;14.75;3.25;;;;;;;23.21;32.84;95744.72;4984276;28;20042;-81
2023/09/29 09:51:36;;;;;;;15.52;3.83;;;;;;;23.16;32.54;95748.44;5000836;28;20065;-81
2023/09/29 09:54:03;;;;;;;11.35;3.70;;;;;;;22.84;33.53;95720.38;4989585;28;20092;-81
2023/09/29 09:57:01;;;;;;;13.45;4.18;;;;;;;23.26;32.60;95730.97;4987462;28;20030;-82
2023/09/29 09:59:28;;;;;;;16.17;3.63;;;;;;;24.45;31.32;95762.66;5010106;28;20042;-81
2023/09/29 10:01:56;;;;;;;11.18;4.13;;;;;;;25.24;30.28;95733.63;4995520;28;20074;-82
2023/09/29 10:04:27;;;;;;;14.27;3.78;;;;;;;26.24;29.46;95736.50;4981062;28;20049;-81
2023/09/29 10:06:56;;;;;;;35.42;5.28;;;;;;;27.01;27.74;95732.78;4980204;28;20118;-82
2023/09/29 10:09:22;;;;;;;27.83;4.85;;;;;;;27.95;26.46;95734.53;4982807;28;20045;-81
2023/09/29 10:12:00;;;;;;;16.40;4.25;;;;;;;28.89;24.91;95744.13;4993017;28;20696;-82
2023/09/29 10:14:25;;;;;;;29.60;4.18;;;;;;;29.31;23.92;95740.16;4986905;28;20070;-82
2023/09/29 10:17:02;;;;;;;22.55;4.40;;;;;;;28.81;23.90;95652.44;4975542;28;20064;-82
2023/09/29 10:19:40;;;;;;;19.45;3.35;;;;;;;29.85;24.23;95742.03;4983990;28;20057;-81
2023/09/29 10:22:08;;;;;;;17.83;3.83;;;;;;;29.58;22.26;95713.41;4982501;28;20041;-82
2023/09/29 10:24:35;;;;;;;16.05;4.13;;;;;;;29.60;22.40;95714.59;4975123;28;20788;-81
2023/09/29 10:27:11;;;;;;;16.52;3.90;;;;;;;29.52;22.10;95729.41;4967780;28;20391;-81
2023/09/29 10:29:38;;;;;;;11.57;3.70;;;;;;;28.74;23.19;95666.00;4981127;28;20511;-81
2023/09/29 10:32:13;;;;;;;9.23;3.13;;;;;;;28.52;23.57;95656.84;4925625;28;20337;-81
2023/09/29 10:34:40;;;;;;;14.55;3.80;;;;;;;28.88;22.93;95734.38;4959134;28;20496;-81
2023/09/29 10:37:06;;;;;;;14.07;3.80;;;;;;;29.18;22.98;95740.47;4970932;28;20040;-81
2023/09/29 10:39:32;;;;;;;14.80;4.38;;;;;;;28.75;23.39;95686.66;4987474;28;20026;-80
2023/09/29 10:42:14;;;;;;;15.95;3.78;;;;;;;28.68;23.31;95672.97;4983555;28;20058;-82
2023/09/29 10:44:52;;;;;;;14.88;4.25;;;;;;;29.09;23.61;95707.22;4977263;28;20034;-82
2023/09/29 10:47:33;;;;;;;12.02;4.07;;;;;;;29.23;22.45;95679.22;5007117;28;20037;-81
2023/09/29 10:50:05;;;;;;;18.83;4.72;;;;;;;29.67;21.91;95706.44;4978378;28;20106;-81
2023/09/29 10:52:31;;;;;;;17.85;3.83;;;;;;;29.76;21.83;95708.81;5003941;28;20128;-81
2023/09/29 10:54:59;;;;;;;10.88;4.05;;;;;;;29.86;22.28;95713.53;4998857;28;20034;-80
2023/09/29 10:57:30;;;;;;;14.27;3.50;;;;;;;30.08;22.23;95687.09;4996220;28;20038;-81
2023/09/29 11:00:01;;;;;;;22.38;4.68;;;;;;;30.24;22.30;95668.38;4990332;28;20030;-81
2023/09/29 11:02:30;;;;;;;16.00;4.53;;;;;;;30.62;22.19;95697.78;4993139;28;20073;-82
2023/09/29 11:04:57;;;;;;;12.70;4.20;;;;;;;31.01;22.17;95700.53;4995987;28;20065;-83
2023/09/29 11:07:23;;;;;;;19.60;4.50;;;;;;;31.39;21.61;95689.94;4996504;28;20081;-81
2023/09/29 11:09:48;;;;;;;9.35;4.10;;;;;;;30.86;22.11;95668.06;4992398;28;20038;-82
2023/09/29 11:12:18;;;;;;;17.95;4.47;;;;;;;31.09;21.92;95703.28;4979037;28;20130;-82
2023/09/29 11:14:43;;;;;;;14.88;4.00;;;;;;;30.84;21.94;95681.34;4996548;28;20497;-82
2023/09/29 11:17:10;;;;;;;11.43;4.13;;;;;;;31.12;21.17;95681.38;4979199;28;20045;-82
2023/09/29 11:19:36;;;;;;;13.88;4.82;;;;;;;31.33;21.78;95689.56;4990310;28;20216;-82
2023/09/29 11:22:03;;;;;;;18.95;4.20;;;;;;;31.10;21.83;95696.63;4981178;28;20416;-81
2023/09/29 11:24:40;;;;;;;11.07;4.20;;;;;;;31.21;21.29;95683.69;4973504;28;20136;-82
2023/09/29 11:27:05;;;;;;;12.95;3.90;;;;;;;31.00;20.93;95673.50;4993701;28;20029;-82
2023/09/29 11:29:31;;;;;;;16.48;4.50;;;;;;;31.02;21.39;95687.59;4999516;28;20320;-82